createdAt,value
2023-01-09T00:00:44.551Z,5.97
2023-01-09T00:03:11.285Z,5.20
2023-01-09T00:05:37.637Z,5.07
2023-01-09T00:08:04.242Z,4.07
2023-01-09T00:10:30.622Z,3.80
2023-01-09T00:12:56.980Z,4.33
2023-01-09T00:15:23.404Z,4.05
2023-01-09T00:17:49.852Z,4.00
2023-01-09T00:20:16.746Z,4.18
2023-01-09T00:22:43.088Z,2.70
2023-01-09T00:25:09.890Z,3.27
2023-01-09T00:27:36.783Z,3.22
2023-01-09T00:30:03.450Z,3.33
2023-01-09T00:32:29.867Z,4.35
2023-01-09T00:34:56.642Z,4.63
2023-01-09T00:37:23.368Z,3.20
2023-01-09T00:39:49.925Z,2.75
2023-01-09T00:42:20.595Z,1.83
2023-01-09T00:44:51.242Z,1.60
2023-01-09T00:47:22.425Z,0.60
2023-01-09T00:49:50.306Z,0.50
2023-01-09T00:52:17.047Z,1.60
2023-01-09T00:54:44.895Z,1.02
2023-01-09T00:57:13.379Z,0.70
2023-01-09T00:59:41.646Z,0.80
2023-01-09T01:02:09.603Z,1.13
2023-01-09T01:04:54.934Z,1.60
2023-01-09T01:07:39.289Z,0.60
2023-01-09T01:10:10.425Z,0.50
2023-01-09T01:12:38.128Z,0.75
2023-01-09T01:15:05.830Z,0.30
2023-01-09T01:17:35.030Z,0.40
2023-01-09T01:20:01.578Z,0.40
2023-01-09T01:22:27.928Z,0.50
2023-01-09T01:24:54.307Z,0.40
2023-01-09T01:27:20.659Z,0.67
2023-01-09T01:29:47.027Z,0.30
2023-01-09T01:32:13.580Z,0.20
2023-01-09T01:34:39.961Z,0.30
2023-01-09T01:37:06.457Z,0.40
2023-01-09T01:39:32.874Z,0.70
2023-01-09T01:41:59.231Z,0.20
2023-01-09T01:44:58.767Z,0.20
2023-01-09T01:47:32.528Z,0.17
2023-01-09T01:50:02.393Z,0.20
2023-01-09T01:52:30.903Z,0.20
2023-01-09T01:54:57.344Z,0.20
2023-01-09T01:57:24.477Z,0.10
2023-01-09T01:59:55.823Z,0.20
2023-01-09T02:02:28.104Z,0.10
2023-01-09T02:04:56.684Z,0.10
2023-01-09T02:07:23.130Z,0.10
2023-01-09T02:09:49.906Z,0.00
2023-01-09T02:12:17.951Z,0.10
2023-01-09T02:14:46.361Z,0.10
2023-01-09T02:17:21.524Z,0.10
2023-01-09T02:20:19.884Z,0.00
2023-01-09T02:22:58.034Z,0.10
2023-01-09T02:25:30.495Z,0.00
2023-01-09T02:28:29.140Z,0.00
2023-01-09T02:31:13.756Z,0.10
2023-01-09T02:33:52.111Z,0.00
2023-01-09T02:36:45.522Z,0.10
2023-01-09T02:39:27.329Z,0.10
2023-01-09T02:42:07.397Z,0.10
2023-01-09T02:44:36.672Z,0.20
2023-01-09T02:47:27.535Z,0.10
2023-01-09T02:49:57.237Z,0.13
2023-01-09T02:53:03.701Z,0.10
2023-01-09T02:56:04.182Z,0.10
2023-01-09T02:59:14.064Z,0.10
2023-01-09T03:02:11.450Z,0.10
2023-01-09T03:04:53.783Z,0.10
2023-01-09T03:07:31.971Z,0.10
2023-01-09T03:10:26.349Z,0.20
2023-01-09T03:12:54.670Z,0.20
2023-01-09T03:15:26.279Z,0.13
2023-01-09T03:17:53.848Z,0.20
2023-01-09T03:20:24.423Z,0.10
2023-01-09T03:22:59.808Z,0.20
2023-01-09T03:25:28.221Z,0.20
2023-01-09T03:28:04.616Z,0.20
2023-01-09T03:30:33.131Z,0.10
2023-01-09T03:32:59.521Z,0.20
2023-01-09T03:35:26.754Z,0.17
2023-01-09T03:37:53.173Z,0.10
2023-01-09T03:40:20.653Z,0.20
2023-01-09T03:42:47.347Z,0.10
2023-01-09T03:45:13.843Z,0.30
2023-01-09T03:47:40.271Z,0.20
2023-01-09T03:50:07.352Z,0.13
2023-01-09T03:52:35.900Z,0.10
2023-01-09T03:55:02.277Z,0.20
2023-01-09T03:57:28.638Z,0.20
2023-01-09T03:59:55.084Z,0.20
2023-01-09T04:02:21.431Z,0.10
2023-01-09T04:04:47.797Z,0.30
2023-01-09T04:07:14.159Z,0.20
2023-01-09T04:09:40.512Z,0.20
2023-01-09T04:12:06.991Z,0.20
2023-01-09T04:14:33.532Z,0.20
2023-01-09T04:16:59.926Z,0.20
2023-01-09T04:19:26.260Z,0.20
2023-01-09T04:21:52.622Z,0.13
2023-01-09T04:24:18.967Z,0.30
2023-01-09T04:26:45.348Z,0.50
2023-01-09T04:29:11.717Z,0.20
2023-01-09T04:31:38.121Z,0.20
2023-01-09T04:34:04.507Z,0.20
2023-01-09T04:36:30.936Z,0.25
2023-01-09T04:38:57.283Z,0.20
2023-01-09T04:41:42.304Z,0.15
2023-01-09T04:44:08.713Z,0.20
2023-01-09T04:46:35.310Z,0.20
2023-01-09T04:49:01.740Z,0.20
2023-01-09T04:51:28.106Z,0.20
2023-01-09T04:53:54.451Z,0.20
2023-01-09T04:56:20.883Z,0.30
2023-01-09T04:58:47.415Z,0.20
2023-01-09T05:01:13.987Z,0.30
2023-01-09T05:03:40.381Z,0.20
2023-01-09T05:06:06.900Z,0.40
2023-01-09T05:08:33.266Z,0.30
2023-01-09T05:11:00.486Z,0.30
2023-01-09T05:13:28.176Z,0.40
2023-01-09T05:15:54.537Z,0.40
2023-01-09T05:18:21.069Z,0.30
2023-01-09T05:20:47.417Z,0.35
2023-01-09T05:23:13.829Z,0.40
2023-01-09T05:25:40.218Z,0.30
2023-01-09T05:28:06.608Z,0.50
2023-01-09T05:30:33.043Z,0.30
2023-01-09T05:32:59.380Z,0.30
2023-01-09T05:35:25.775Z,0.50
2023-01-09T05:37:52.197Z,0.45
2023-01-09T05:40:18.720Z,0.40
2023-01-09T05:42:45.173Z,0.50
2023-01-09T05:45:12.136Z,0.40
2023-01-09T05:47:38.562Z,0.35
2023-01-09T05:50:05.442Z,0.40
2023-01-09T05:52:32.078Z,0.60
2023-01-09T05:54:58.431Z,0.47
2023-01-09T05:57:24.797Z,0.40
2023-01-09T05:59:51.190Z,0.35
2023-01-09T06:02:17.738Z,0.30
2023-01-09T06:04:44.198Z,0.77
2023-01-09T06:07:10.568Z,0.40
2023-01-09T06:09:37.055Z,0.57
2023-01-09T06:12:03.654Z,0.30
2023-01-09T06:14:30.050Z,0.40
2023-01-09T06:16:56.449Z,0.50
2023-01-09T06:19:22.813Z,0.70
2023-01-09T06:21:49.188Z,0.47
2023-01-09T06:24:15.613Z,0.40
2023-01-09T06:26:42.066Z,0.40
2023-01-09T06:29:08.495Z,0.50
2023-01-09T06:31:34.966Z,0.60
2023-01-09T06:34:01.448Z,1.30
2023-01-09T06:36:27.927Z,1.80
2023-01-09T06:38:54.285Z,0.70
2023-01-09T06:41:20.643Z,1.70
2023-01-09T06:43:47.002Z,0.88
2023-01-09T06:46:13.465Z,0.50
2023-01-09T06:48:39.922Z,0.40
2023-01-09T06:51:06.307Z,0.45
2023-01-09T06:53:34.910Z,0.70
2023-01-09T06:56:02.704Z,0.45
2023-01-09T06:58:29.083Z,0.68
2023-01-09T07:00:58.110Z,0.40
2023-01-09T07:03:24.463Z,0.50
2023-01-09T07:05:50.900Z,0.50
2023-01-09T07:08:18.296Z,0.30
2023-01-09T07:10:44.792Z,0.38
2023-01-09T07:13:11.452Z,0.80
2023-01-09T07:15:37.830Z,0.30
2023-01-09T07:18:04.429Z,0.50
2023-01-09T07:20:31.027Z,0.20
2023-01-09T07:22:57.979Z,0.25
2023-01-09T07:25:24.381Z,0.32
2023-01-09T07:27:50.736Z,0.20
2023-01-09T07:30:17.448Z,0.40
2023-01-09T07:32:43.905Z,0.20
2023-01-09T07:35:11.016Z,0.25
2023-01-09T07:37:37.411Z,0.40
2023-01-09T07:40:04.193Z,0.30
2023-01-09T07:42:30.610Z,0.27
2023-01-09T07:44:57.016Z,0.30
2023-01-09T07:47:23.388Z,0.28
2023-01-09T07:49:49.792Z,0.30
2023-01-09T07:52:16.207Z,0.30
2023-01-09T07:54:42.575Z,0.30
2023-01-09T07:57:08.962Z,0.40
2023-01-09T07:59:35.321Z,0.30
2023-01-09T08:02:05.468Z,0.55
2023-01-09T08:04:31.885Z,0.20
2023-01-09T08:06:58.357Z,0.20
2023-01-09T08:09:24.707Z,0.30
2023-01-09T08:11:51.070Z,0.38
2023-01-09T08:14:17.431Z,0.28
2023-01-09T08:16:43.788Z,0.20
2023-01-09T08:19:12.014Z,0.60
2023-01-09T08:21:39.596Z,0.40
2023-01-09T08:24:06.196Z,0.60
2023-01-09T08:26:32.778Z,0.40
2023-01-09T08:28:59.119Z,0.60
2023-01-09T08:31:25.517Z,0.40
2023-01-09T08:33:51.859Z,0.38
2023-01-09T08:36:18.276Z,0.40
2023-01-09T08:38:44.630Z,0.40
2023-01-09T08:41:29.695Z,0.45
2023-01-09T08:44:14.375Z,0.30
2023-01-09T08:47:00.766Z,0.30
2023-01-09T08:49:27.163Z,0.30
2023-01-09T08:51:53.533Z,0.40
2023-01-09T08:54:19.912Z,0.40
2023-01-09T08:56:46.345Z,0.40
2023-01-09T08:59:12.797Z,0.55
2023-01-09T09:01:39.273Z,0.30
2023-01-09T09:04:05.916Z,0.30
2023-01-09T09:06:33.578Z,0.70
2023-01-09T09:09:03.517Z,0.70
2023-01-09T09:11:30.692Z,0.73
2023-01-09T09:13:57.795Z,0.90
2023-01-09T09:16:25.433Z,0.77
2023-01-09T09:18:52.143Z,1.13
2023-01-09T09:21:18.884Z,0.80
2023-01-09T09:23:45.269Z,1.17
2023-01-09T09:26:11.711Z,1.00
2023-01-09T09:28:38.349Z,0.88
2023-01-09T09:31:05.923Z,0.90
2023-01-09T09:33:32.504Z,0.80
2023-01-09T09:35:59.780Z,0.73
2023-01-09T09:38:26.381Z,0.85
2023-01-09T09:41:42.550Z,0.80
2023-01-09T09:44:48.358Z,0.77
2023-01-09T09:47:57.074Z,0.67
2023-01-09T09:50:33.645Z,0.88
2023-01-09T09:53:25.890Z,0.70
2023-01-09T09:55:52.887Z,0.90
2023-01-09T09:58:28.755Z,0.60
2023-01-09T10:00:56.071Z,0.90
2023-01-09T10:03:39.931Z,0.80
2023-01-09T10:06:15.583Z,0.80
2023-01-09T10:09:13.046Z,0.80
2023-01-09T10:12:16.574Z,0.75
2023-01-09T10:14:43.033Z,0.80
2023-01-09T10:17:38.898Z,0.70
2023-01-09T10:20:40.742Z,0.70
2023-01-09T10:23:38.734Z,0.70
2023-01-09T10:26:13.340Z,0.90
2023-01-09T10:29:09.984Z,0.70
2023-01-09T10:32:04.042Z,0.80
2023-01-09T10:35:03.912Z,0.80
2023-01-09T10:37:42.137Z,0.70
2023-01-09T10:40:22.500Z,1.00
2023-01-09T10:42:54.413Z,0.80
2023-01-09T10:45:26.632Z,1.13
2023-01-09T10:48:02.432Z,0.60
2023-01-09T10:50:35.574Z,0.90
2023-01-09T10:53:13.941Z,0.65
2023-01-09T10:55:47.727Z,0.70
2023-01-09T10:58:17.793Z,0.77
2023-01-09T11:00:46.391Z,0.50
2023-01-09T11:03:14.394Z,0.70
2023-01-09T11:05:41.207Z,0.40
2023-01-09T11:08:13.422Z,0.50
2023-01-09T11:10:49.281Z,0.63
2023-01-09T11:13:21.736Z,0.60
2023-01-09T11:16:07.005Z,0.65
2023-01-09T11:18:37.460Z,0.50
2023-01-09T11:21:34.047Z,0.60
2023-01-09T11:24:18.516Z,0.60
2023-01-09T11:26:45.967Z,0.70
2023-01-09T11:29:19.104Z,0.60
2023-01-09T11:31:54.317Z,0.50
2023-01-09T11:34:23.531Z,0.50
2023-01-09T11:36:52.315Z,0.50
2023-01-09T11:39:25.396Z,0.60
2023-01-09T11:42:00.624Z,0.50
2023-01-09T11:44:28.693Z,0.40
2023-01-09T11:46:55.083Z,0.50
2023-01-09T11:49:24.766Z,0.60
2023-01-09T11:52:15.202Z,0.43
2023-01-09T11:54:54.130Z,0.40
2023-01-09T11:57:22.571Z,0.88
2023-01-09T11:59:49.015Z,0.50
2023-01-09T12:02:18.204Z,0.68
2023-01-09T12:04:56.818Z,0.40
2023-01-09T12:07:41.410Z,0.73
2023-01-09T12:10:27.525Z,0.70
2023-01-09T12:13:20.051Z,0.80
2023-01-09T12:16:07.129Z,0.50
2023-01-09T12:18:57.961Z,0.40
2023-01-09T12:21:27.327Z,0.30
2023-01-09T12:24:27.949Z,0.40
2023-01-09T12:27:00.287Z,0.30
2023-01-09T12:29:29.629Z,0.22
2023-01-09T12:32:07.817Z,0.20
2023-01-09T12:34:52.546Z,0.30
2023-01-09T12:38:00.109Z,0.20
2023-01-09T12:41:04.974Z,0.20
2023-01-09T12:44:08.786Z,0.20
2023-01-09T12:47:03.322Z,0.20
2023-01-09T12:49:39.267Z,0.20
2023-01-09T12:52:14.450Z,0.30
2023-01-09T12:54:51.326Z,0.60
2023-01-09T12:57:26.408Z,0.40
2023-01-09T12:59:57.927Z,0.47
2023-01-09T13:02:48.188Z,0.30
2023-01-09T13:05:26.525Z,0.40
2023-01-09T13:08:00.123Z,1.50
2023-01-09T13:10:33.544Z,0.40
2023-01-09T13:13:10.337Z,2.22
2023-01-09T13:15:43.889Z,0.70
2023-01-09T13:18:27.297Z,0.20
2023-01-09T13:20:58.286Z,1.17
2023-01-09T13:23:35.530Z,0.80
2023-01-09T13:26:06.284Z,0.20
2023-01-09T13:28:42.251Z,0.60
2023-01-09T13:31:30.013Z,0.20
2023-01-09T13:33:59.509Z,0.30
2023-01-09T13:36:31.054Z,0.40
2023-01-09T13:38:59.759Z,0.20
2023-01-09T13:41:46.393Z,0.40
2023-01-09T13:44:18.844Z,0.25
2023-01-09T13:46:48.434Z,0.37
2023-01-09T13:49:46.946Z,0.50
2023-01-09T13:52:34.342Z,0.60
2023-01-09T13:55:05.073Z,0.70
2023-01-09T13:57:35.190Z,0.30
2023-01-09T14:00:07.345Z,0.40
2023-01-09T14:02:33.688Z,0.40
2023-01-09T14:05:01.244Z,0.50
2023-01-09T14:07:38.795Z,0.60
2023-01-09T14:10:27.452Z,0.30
2023-01-09T14:12:55.805Z,0.40
2023-01-09T14:15:36.540Z,0.50
2023-01-09T14:18:05.921Z,0.47
2023-01-09T14:20:37.740Z,0.60
2023-01-09T14:23:28.109Z,0.60
2023-01-09T14:25:54.094Z,0.30
2023-01-09T14:28:26.577Z,0.40
2023-01-09T14:30:52.916Z,0.30
2023-01-09T14:33:19.338Z,0.30
2023-01-09T14:35:54.820Z,0.25
2023-01-09T14:38:44.552Z,0.47
2023-01-09T14:42:20.635Z,0.30
2023-01-09T14:45:06.149Z,0.60
2023-01-09T14:47:39.640Z,0.20
2023-01-09T14:50:13.126Z,0.20
2023-01-09T14:52:48.083Z,0.37
2023-01-09T14:55:26.865Z,0.25
2023-01-09T14:57:55.112Z,0.45
2023-01-09T15:00:23.179Z,0.30
2023-01-09T15:02:52.570Z,0.50
2023-01-09T15:05:24.936Z,0.40
2023-01-09T15:08:00.050Z,0.60
2023-01-09T15:10:30.688Z,0.98
2023-01-09T15:13:00.354Z,1.40
2023-01-09T15:15:27.529Z,0.80
2023-01-09T15:17:59.936Z,0.50
2023-01-09T15:20:30.990Z,0.40
2023-01-09T15:23:00.736Z,0.85
2023-01-09T15:25:39.945Z,0.93
2023-01-09T15:28:26.888Z,0.82
2023-01-09T15:30:57.486Z,0.70
2023-01-09T15:33:24.081Z,0.70
2023-01-09T15:35:52.272Z,0.40
2023-01-09T15:38:22.921Z,0.40
2023-01-09T15:41:01.474Z,0.50
2023-01-09T15:43:30.268Z,0.30
2023-01-09T15:45:57.789Z,0.50
2023-01-09T15:48:33.721Z,0.50
2023-01-09T15:51:05.898Z,0.40
2023-01-09T15:53:33.030Z,0.50
2023-01-09T15:56:24.010Z,0.40
2023-01-09T15:58:52.672Z,0.30
2023-01-09T16:01:27.718Z,0.50
2023-01-09T16:03:56.907Z,0.50
2023-01-09T16:06:30.418Z,0.40
2023-01-09T16:08:59.520Z,0.30
2023-01-09T16:11:30.055Z,0.20
2023-01-09T16:14:04.911Z,0.30
2023-01-09T16:16:33.733Z,0.30
2023-01-09T16:19:00.388Z,0.28
2023-01-09T16:21:33.223Z,0.23
2023-01-09T16:24:08.189Z,0.30
2023-01-09T16:26:34.755Z,0.40
2023-01-09T16:29:27.517Z,0.40
2023-01-09T16:32:05.375Z,0.20
2023-01-09T16:34:35.179Z,0.40
2023-01-09T16:37:02.856Z,0.30
2023-01-09T16:39:29.313Z,0.25
2023-01-09T16:42:15.926Z,0.30
2023-01-09T16:44:42.769Z,0.20
2023-01-09T16:47:12.039Z,0.30
2023-01-09T16:49:38.492Z,0.40
2023-01-09T16:52:15.435Z,0.98
2023-01-09T16:54:43.651Z,0.80
2023-01-09T16:57:12.981Z,0.80
2023-01-09T16:59:39.419Z,0.90
2023-01-09T17:02:17.248Z,1.00
2023-01-09T17:04:43.659Z,0.60
2023-01-09T17:07:16.958Z,0.60
2023-01-09T17:09:43.735Z,0.30
2023-01-09T17:12:28.043Z,7.37
2023-01-09T17:14:54.415Z,1.27
2023-01-09T17:17:21.501Z,0.30
2023-01-09T17:19:48.421Z,0.30
2023-01-09T17:22:15.401Z,0.40
2023-01-09T17:25:00.449Z,0.40
2023-01-09T17:27:55.712Z,0.50
2023-01-09T17:30:22.891Z,0.50
2023-01-09T17:32:49.504Z,0.47
2023-01-09T17:35:16.290Z,0.50
2023-01-09T17:37:42.754Z,0.37
2023-01-09T17:40:15.295Z,0.40
2023-01-09T17:42:41.651Z,0.80
2023-01-09T17:45:08.306Z,0.60
2023-01-09T17:47:34.649Z,0.50
2023-01-09T17:50:01.043Z,0.50
2023-01-09T17:52:28.533Z,0.50
2023-01-09T17:54:54.934Z,0.35
2023-01-09T17:57:21.364Z,0.40
2023-01-09T17:59:47.734Z,0.50
2023-01-09T18:02:18.711Z,0.50
2023-01-09T18:04:45.740Z,0.40
2023-01-09T18:07:16.088Z,0.50
2023-01-09T18:09:43.299Z,0.30
2023-01-09T18:12:09.822Z,0.30
2023-01-09T18:14:37.954Z,0.33
2023-01-09T18:17:06.167Z,0.30
2023-01-09T18:19:33.660Z,0.30
2023-01-09T18:22:00.284Z,0.30
2023-01-09T18:24:27.141Z,0.40
2023-01-09T18:26:54.276Z,0.20
2023-01-09T18:29:21.306Z,0.38
2023-01-09T18:31:47.907Z,0.30
2023-01-09T18:34:14.371Z,0.30
2023-01-09T18:36:40.859Z,0.60
2023-01-09T18:39:08.694Z,0.30
2023-01-09T18:41:35.045Z,0.43
2023-01-09T18:44:02.155Z,0.63
2023-01-09T18:46:32.294Z,0.30
2023-01-09T18:49:04.112Z,0.50
2023-01-09T18:51:31.925Z,0.37
2023-01-09T18:53:58.667Z,0.40
2023-01-09T18:56:25.047Z,0.40
2023-01-09T18:58:56.605Z,0.45
2023-01-09T19:01:24.155Z,1.00
2023-01-09T19:03:50.575Z,0.70
2023-01-09T19:06:16.952Z,0.73
2023-01-09T19:08:43.817Z,2.08
2023-01-09T19:11:10.407Z,3.53
2023-01-09T19:13:37.713Z,2.08
2023-01-09T19:16:05.769Z,1.90
2023-01-09T19:18:34.169Z,2.63
2023-01-09T19:21:00.811Z,3.92
2023-01-09T19:23:27.335Z,1.33
2023-01-09T19:25:54.606Z,1.00
2023-01-09T19:28:21.457Z,0.83
2023-01-09T19:30:53.827Z,1.08
2023-01-09T19:33:20.164Z,0.68
2023-01-09T19:35:48.697Z,3.45
2023-01-09T19:38:15.029Z,2.13
2023-01-09T19:40:41.384Z,1.40
2023-01-09T19:43:07.731Z,1.00
2023-01-09T19:45:34.274Z,1.00
2023-01-09T19:48:00.706Z,0.93
2023-01-09T19:50:27.094Z,1.10
2023-01-09T19:52:53.425Z,0.60
2023-01-09T19:55:19.772Z,0.70
2023-01-09T19:57:46.648Z,0.70
2023-01-09T20:00:14.726Z,0.70
2023-01-09T20:02:41.953Z,0.82
2023-01-09T20:05:09.550Z,1.00
2023-01-09T20:07:36.062Z,0.80
2023-01-09T20:10:02.557Z,0.70
2023-01-09T20:12:28.991Z,0.60
2023-01-09T20:14:55.355Z,0.70
2023-01-09T20:17:21.759Z,0.70
2023-01-09T20:19:48.139Z,0.70
2023-01-09T20:22:14.497Z,0.70
2023-01-09T20:24:40.916Z,0.73
2023-01-09T20:27:07.390Z,1.23
2023-01-09T20:29:34.204Z,0.90
2023-01-09T20:32:01.376Z,0.55
2023-01-09T20:34:27.816Z,1.58
2023-01-09T20:36:54.673Z,0.95
2023-01-09T20:39:21.210Z,0.93
2023-01-09T20:41:48.126Z,0.90
2023-01-09T20:44:15.754Z,1.80
2023-01-09T20:46:47.352Z,0.93
2023-01-09T20:49:16.016Z,0.63
2023-01-09T20:51:48.300Z,0.90
2023-01-09T20:54:16.078Z,1.00
2023-01-09T20:56:42.847Z,0.82
2023-01-09T20:59:17.954Z,0.80
2023-01-09T21:01:44.316Z,0.80
2023-01-09T21:04:10.719Z,1.10
2023-01-09T21:06:37.162Z,1.00
2023-01-09T21:09:04.903Z,1.00
2023-01-09T21:11:31.826Z,0.95
2023-01-09T21:13:58.177Z,1.00
2023-01-09T21:16:24.997Z,0.90
2023-01-09T21:18:53.186Z,0.70
2023-01-09T21:21:23.284Z,0.77
2023-01-09T21:23:52.380Z,1.02
2023-01-09T21:26:22.403Z,0.90
2023-01-09T21:28:50.281Z,1.00
2023-01-09T21:31:19.393Z,0.73
2023-01-09T21:33:46.616Z,0.80
2023-01-09T21:36:13.307Z,0.65
2023-01-09T21:38:39.861Z,0.88
2023-01-09T21:41:25.230Z,0.60
2023-01-09T21:44:09.884Z,0.77
2023-01-09T21:46:54.741Z,0.75
2023-01-09T21:49:25.151Z,1.02
2023-01-09T21:51:53.400Z,0.68
2023-01-09T21:54:20.407Z,0.90
2023-01-09T21:56:46.929Z,0.70
2023-01-09T21:59:13.383Z,0.68
2023-01-09T22:01:39.864Z,0.98
2023-01-09T22:04:06.232Z,0.75
2023-01-09T22:06:32.665Z,0.90
2023-01-09T22:08:59.189Z,0.73
2023-01-09T22:11:25.577Z,0.77
2023-01-09T22:13:52.098Z,0.70
2023-01-09T22:16:18.989Z,0.40
2023-01-09T22:18:45.589Z,0.57
2023-01-09T22:21:12.203Z,0.57
2023-01-09T22:23:38.872Z,0.70
2023-01-09T22:26:13.386Z,0.60
2023-01-09T22:28:40.430Z,0.65
2023-01-09T22:31:29.836Z,0.70
2023-01-09T22:33:58.379Z,0.70
2023-01-09T22:36:26.654Z,0.73
2023-01-09T22:38:54.953Z,0.77
2023-01-09T22:41:22.275Z,0.60
2023-01-09T22:43:48.638Z,0.60
2023-01-09T22:46:15.117Z,0.60
2023-01-09T22:48:42.371Z,0.70
2023-01-09T22:51:14.894Z,0.77
2023-01-09T22:53:41.834Z,0.65
2023-01-09T22:56:11.974Z,0.75
2023-01-09T22:58:38.741Z,0.70
2023-01-09T23:01:06.217Z,0.70
2023-01-09T23:03:32.778Z,0.70
2023-01-09T23:06:12.170Z,0.90
2023-01-09T23:08:38.951Z,0.80
2023-01-09T23:11:09.040Z,0.70
2023-01-09T23:13:35.535Z,0.60
2023-01-09T23:16:01.994Z,0.80
2023-01-09T23:18:28.695Z,0.80
2023-01-09T23:20:57.861Z,0.60
2023-01-09T23:23:26.083Z,0.60
2023-01-09T23:25:55.571Z,0.40
2023-01-09T23:28:23.316Z,0.40
2023-01-09T23:30:49.678Z,0.43
2023-01-09T23:33:16.689Z,0.60
2023-01-09T23:35:44.149Z,0.50
2023-01-09T23:38:13.722Z,0.50
2023-01-09T23:40:41.568Z,0.30
2023-01-09T23:43:10.646Z,0.50
2023-01-09T23:45:38.926Z,0.40
2023-01-09T23:48:06.721Z,0.43
2023-01-09T23:50:33.496Z,0.40
2023-01-09T23:52:59.938Z,0.38
2023-01-09T23:55:26.818Z,0.50
2023-01-09T23:57:54.524Z,0.43
